createdAt,value
2019-04-04T00:00:35.076Z,8.40
2019-04-04T00:01:35.257Z,8.30
2019-04-04T00:02:35.328Z,8.10
2019-04-04T00:03:35.459Z,7.90
2019-04-04T00:04:35.613Z,7.60
2019-04-04T00:05:35.743Z,7.80
2019-04-04T00:06:35.862Z,7.60
2019-04-04T00:07:36.004Z,7.50
2019-04-04T00:08:36.134Z,8.00
2019-04-04T00:09:36.259Z,7.80
2019-04-04T00:10:36.383Z,8.00
2019-04-04T00:11:36.923Z,8.00
2019-04-04T00:12:37.027Z,7.80
2019-04-04T00:13:36.781Z,8.10
2019-04-04T00:14:36.927Z,8.30
2019-04-04T00:15:37.047Z,7.10
2019-04-04T00:16:37.174Z,7.70
2019-04-04T00:17:37.302Z,7.60
2019-04-04T00:18:37.427Z,7.70
2019-04-04T00:19:37.553Z,6.90
2019-04-04T00:20:37.677Z,7.40
2019-04-04T00:21:37.807Z,7.60
2019-04-04T00:22:37.949Z,7.80
2019-04-04T00:23:38.594Z,7.70
2019-04-04T00:24:39.589Z,7.60
2019-04-04T00:25:40.302Z,7.50
2019-04-04T00:26:41.661Z,7.70
2019-04-04T00:27:38.588Z,7.60
2019-04-04T00:28:38.732Z,7.80
2019-04-04T00:29:38.847Z,8.10
2019-04-04T00:30:39.016Z,7.90
2019-04-04T00:31:39.100Z,7.90
2019-04-04T00:32:39.236Z,7.60
2019-04-04T00:33:39.365Z,8.30
2019-04-04T00:34:39.499Z,7.80
2019-04-04T00:35:39.623Z,7.90
2019-04-04T00:36:39.755Z,7.60
2019-04-04T00:37:41.131Z,7.40
2019-04-04T00:38:40.031Z,7.90
2019-04-04T00:39:40.469Z,8.10
2019-04-04T00:40:41.987Z,7.90
2019-04-04T00:41:40.437Z,7.90
2019-04-04T00:42:40.563Z,8.30
2019-04-04T00:43:40.697Z,7.40
2019-04-04T00:44:40.813Z,7.60
2019-04-04T00:45:40.958Z,7.60
2019-04-04T00:46:41.089Z,8.20
2019-04-04T00:47:41.209Z,8.30
2019-04-04T00:48:41.342Z,8.30
2019-04-04T00:49:41.453Z,8.70
2019-04-04T00:50:41.580Z,9.00
2019-04-04T00:51:41.716Z,9.10
2019-04-04T00:52:41.843Z,8.90
2019-04-04T00:53:43.039Z,8.80
2019-04-04T00:54:43.033Z,9.10
2019-04-04T00:55:42.202Z,9.40
2019-04-04T00:56:42.354Z,9.30
2019-04-04T00:57:42.462Z,9.60
2019-04-04T00:58:42.587Z,9.50
2019-04-04T00:59:42.717Z,9.60
2019-04-04T01:00:42.871Z,9.80
2019-04-04T01:01:42.995Z,9.80
2019-04-04T01:02:43.129Z,10.20
2019-04-04T01:03:43.248Z,10.10
2019-04-04T01:04:43.405Z,10.40
2019-04-04T01:05:43.521Z,10.80
2019-04-04T01:06:43.651Z,10.10
2019-04-04T01:07:43.781Z,10.40
2019-04-04T01:08:43.906Z,10.90
2019-04-04T01:09:44.055Z,10.80
2019-04-04T01:10:44.181Z,10.70
2019-04-04T01:11:44.324Z,10.80
2019-04-04T01:12:44.443Z,10.40
2019-04-04T01:13:44.583Z,10.90
2019-04-04T01:14:44.699Z,10.50
2019-04-04T01:15:44.872Z,10.30
2019-04-04T01:16:44.978Z,10.50
2019-04-04T01:17:45.105Z,10.10
2019-04-04T01:18:45.233Z,10.80
2019-04-04T01:19:48.724Z,10.80
2019-04-04T01:20:45.513Z,10.70
2019-04-04T01:21:45.640Z,10.60
2019-04-04T01:22:45.765Z,11.20
2019-04-04T01:23:45.915Z,11.10
2019-04-04T01:24:46.044Z,11.30
2019-04-04T01:25:46.166Z,10.80
2019-04-04T01:26:46.310Z,10.70
2019-04-04T01:27:46.459Z,10.90
2019-04-04T01:28:46.560Z,10.80
2019-04-04T01:29:46.683Z,10.40
2019-04-04T01:30:46.809Z,10.40
2019-04-04T01:31:46.943Z,10.80
2019-04-04T01:32:48.241Z,11.00
2019-04-04T01:33:47.214Z,11.20
2019-04-04T01:34:47.335Z,11.40
2019-04-04T01:35:47.460Z,10.60
2019-04-04T01:36:47.589Z,11.10
2019-04-04T01:37:47.716Z,11.20
2019-04-04T01:38:47.841Z,11.20
2019-04-04T01:39:47.969Z,11.50
2019-04-04T01:40:48.136Z,11.40
2019-04-04T01:41:48.253Z,11.30
2019-04-04T01:42:48.382Z,11.40
2019-04-04T01:43:48.506Z,11.60
2019-04-04T01:44:48.656Z,11.10
2019-04-04T01:45:48.790Z,12.00
2019-04-04T01:46:48.914Z,11.60
2019-04-04T01:47:49.049Z,11.30
2019-04-04T01:48:50.066Z,10.70
2019-04-04T01:49:49.969Z,11.20
2019-04-04T01:50:49.429Z,10.90
2019-04-04T01:51:49.626Z,11.60
2019-04-04T01:52:49.703Z,11.40
2019-04-04T01:53:49.837Z,11.30
2019-04-04T01:54:49.989Z,11.80
2019-04-04T01:55:50.106Z,12.00
2019-04-04T01:56:50.245Z,11.70
2019-04-04T01:57:50.383Z,11.90
2019-04-04T01:58:50.498Z,12.00
2019-04-04T01:59:50.630Z,11.70
2019-04-04T02:00:50.755Z,12.30
2019-04-04T02:01:50.894Z,12.20
2019-04-04T02:02:51.825Z,11.50
2019-04-04T02:03:51.770Z,11.70
2019-04-04T02:04:51.306Z,11.70
2019-04-04T02:05:51.427Z,12.00
2019-04-04T02:06:51.557Z,11.00
2019-04-04T02:07:51.682Z,11.20
2019-04-04T02:08:51.813Z,11.20
2019-04-04T02:09:51.949Z,12.40
2019-04-04T02:10:52.085Z,11.50
2019-04-04T02:11:52.204Z,11.50
2019-04-04T02:12:52.344Z,11.70
2019-04-04T02:13:52.467Z,11.50
2019-04-04T02:14:52.595Z,11.60
2019-04-04T02:15:52.730Z,11.50
2019-04-04T02:16:52.883Z,11.80
2019-04-04T02:17:53.470Z,11.40
2019-04-04T02:18:53.886Z,11.80
2019-04-04T02:19:55.605Z,12.20
2019-04-04T02:20:53.420Z,11.90
2019-04-04T02:21:53.548Z,11.40
2019-04-04T02:22:53.674Z,11.30
2019-04-04T02:23:53.799Z,12.00
2019-04-04T02:24:53.941Z,12.00
2019-04-04T02:25:54.065Z,11.80
2019-04-04T02:26:54.198Z,11.10
2019-04-04T02:27:54.320Z,11.00
2019-04-04T02:28:54.490Z,12.60
2019-04-04T02:29:54.599Z,11.90
2019-04-04T02:30:54.726Z,12.20
2019-04-04T02:31:54.885Z,12.30
2019-04-04T02:32:59.405Z,12.40
2019-04-04T02:33:55.138Z,12.30
2019-04-04T02:34:55.270Z,12.20
2019-04-04T02:35:55.412Z,11.60
2019-04-04T02:36:55.534Z,11.90
2019-04-04T02:37:56.168Z,12.10
2019-04-04T02:38:57.590Z,13.20
2019-04-04T02:39:55.933Z,13.10
2019-04-04T02:40:56.055Z,12.50
2019-04-04T02:41:56.189Z,12.10
2019-04-04T02:42:56.309Z,11.60
2019-04-04T02:43:59.331Z,11.90
2019-04-04T02:44:56.590Z,12.00
2019-04-04T02:45:56.712Z,11.40
2019-04-04T02:46:56.840Z,12.20
2019-04-04T02:47:56.982Z,11.90
2019-04-04T02:48:57.172Z,12.00
2019-04-04T02:50:00.631Z,12.30
2019-04-04T02:50:57.357Z,11.90
2019-04-04T02:51:57.505Z,11.50
2019-04-04T02:52:57.629Z,11.90
2019-04-04T02:53:57.760Z,11.50
2019-04-04T02:54:58.570Z,12.10
2019-04-04T02:56:02.269Z,12.50
2019-04-04T02:56:58.133Z,12.60
2019-04-04T02:57:58.277Z,12.80
2019-04-04T02:58:58.401Z,13.50
2019-04-04T02:59:58.536Z,12.30
2019-04-04T03:01:00.404Z,12.80
2019-04-04T03:01:58.793Z,12.00
2019-04-04T03:02:58.914Z,12.20
2019-04-04T03:03:59.040Z,12.50
2019-04-04T03:04:59.321Z,12.60
2019-04-04T03:05:59.298Z,12.10
2019-04-04T03:06:59.415Z,12.20
2019-04-04T03:08:03.014Z,12.70
2019-04-04T03:08:59.698Z,13.30
2019-04-04T03:09:59.804Z,13.20
2019-04-04T03:10:59.921Z,12.80
2019-04-04T03:12:00.049Z,13.20
2019-04-04T03:13:00.190Z,14.10
2019-04-04T03:14:03.295Z,13.50
2019-04-04T03:15:00.443Z,13.20
2019-04-04T03:16:00.575Z,14.60
2019-04-04T03:17:00.699Z,14.50
2019-04-04T03:18:04.066Z,14.20
2019-04-04T03:19:00.980Z,14.50
2019-04-04T03:20:01.171Z,14.10
2019-04-04T03:21:01.296Z,14.20
2019-04-04T03:22:01.421Z,14.20
2019-04-04T03:23:01.574Z,13.90
2019-04-04T03:24:05.847Z,13.40
2019-04-04T03:25:01.828Z,13.40
2019-04-04T03:26:01.956Z,27.20
2019-04-04T03:27:02.082Z,20.00
2019-04-04T03:28:02.227Z,16.30
2019-04-04T03:29:05.468Z,21.60
2019-04-04T03:30:02.474Z,20.20
2019-04-04T03:31:03.743Z,16.00
2019-04-04T03:32:02.722Z,17.00
2019-04-04T03:33:02.865Z,19.90
2019-04-04T03:34:08.679Z,15.80
2019-04-04T03:35:03.125Z,16.20
2019-04-04T03:36:03.270Z,17.50
2019-04-04T03:37:06.050Z,16.60
2019-04-04T03:38:03.527Z,19.20
2019-04-04T03:39:03.651Z,18.50
2019-04-04T03:40:03.802Z,15.70
2019-04-04T03:41:03.914Z,15.10
2019-04-04T03:42:06.953Z,15.70
2019-04-04T03:43:04.166Z,16.20
2019-04-04T03:44:04.333Z,16.50
2019-04-04T03:45:04.503Z,16.20
2019-04-04T03:46:04.636Z,16.20
2019-04-04T03:47:04.764Z,16.40
2019-04-04T03:48:04.939Z,16.30
2019-04-04T03:49:05.058Z,16.80
2019-04-04T03:50:05.197Z,16.70
2019-04-04T03:51:05.421Z,16.10
2019-04-04T03:52:10.187Z,17.40
2019-04-04T03:53:05.592Z,17.40
2019-04-04T03:54:05.726Z,17.00
2019-04-04T03:55:05.835Z,16.50
2019-04-04T03:56:05.999Z,17.50
2019-04-04T03:57:06.114Z,16.80
2019-04-04T03:58:06.256Z,17.50
2019-04-04T03:59:06.371Z,17.10
2019-04-04T04:00:07.538Z,17.70
2019-04-04T04:01:06.668Z,17.50
2019-04-04T04:02:06.787Z,18.60
2019-04-04T04:03:06.937Z,18.60
2019-04-04T04:04:07.058Z,18.00
2019-04-04T04:05:07.181Z,17.20
2019-04-04T04:06:09.001Z,17.70
2019-04-04T04:07:07.472Z,18.20
2019-04-04T04:08:07.588Z,18.50
2019-04-04T04:09:07.710Z,17.70
2019-04-04T04:10:07.845Z,17.40
2019-04-04T04:11:08.034Z,17.20
2019-04-04T04:12:11.148Z,17.70
2019-04-04T04:13:08.302Z,17.50
2019-04-04T04:14:08.422Z,17.30
2019-04-04T04:15:08.555Z,16.70
2019-04-04T04:16:08.681Z,16.60
2019-04-04T04:17:09.137Z,17.30
2019-04-04T04:18:08.933Z,17.40
2019-04-04T04:19:09.069Z,17.10
2019-04-04T04:20:09.189Z,17.60
2019-04-04T04:21:10.947Z,17.00
2019-04-04T04:22:12.756Z,17.80
2019-04-04T04:23:09.570Z,17.60
2019-04-04T04:24:09.705Z,17.00
2019-04-04T04:25:09.829Z,17.30
2019-04-04T04:26:10.148Z,16.90
2019-04-04T04:27:14.460Z,17.70
2019-04-04T04:28:10.209Z,17.50
2019-04-04T04:29:10.335Z,18.20
2019-04-04T04:30:10.481Z,17.40
2019-04-04T04:31:14.352Z,17.30
2019-04-04T04:32:10.735Z,18.30
2019-04-04T04:33:10.863Z,17.80
2019-04-04T04:34:10.991Z,17.90
2019-04-04T04:35:11.117Z,17.80
2019-04-04T04:36:15.340Z,17.60
2019-04-04T04:37:11.372Z,17.80
2019-04-04T04:38:11.503Z,16.80
2019-04-04T04:39:11.631Z,18.10
2019-04-04T04:40:15.088Z,17.90
2019-04-04T04:41:11.887Z,18.10
2019-04-04T04:42:12.021Z,18.10
2019-04-04T04:43:15.279Z,17.90
2019-04-04T04:44:12.272Z,17.60
2019-04-04T04:45:12.655Z,17.50
2019-04-04T04:46:16.947Z,17.70
2019-04-04T04:47:12.658Z,17.50
2019-04-04T04:48:12.785Z,17.30
2019-04-04T04:49:12.919Z,17.90
2019-04-04T04:50:13.047Z,17.60
2019-04-04T04:51:13.169Z,17.40
2019-04-04T04:52:15.089Z,18.00
2019-04-04T04:53:18.299Z,18.40
2019-04-04T04:54:13.550Z,17.80
2019-04-04T04:55:13.682Z,17.50
2019-04-04T04:56:13.811Z,18.60
2019-04-04T04:57:28.415Z,18.10
2019-04-04T04:58:14.141Z,19.30
2019-04-04T04:59:14.127Z,20.10
2019-04-04T05:00:15.994Z,18.70
2019-04-04T05:01:17.984Z,18.70
2019-04-04T05:02:14.548Z,18.60
2019-04-04T05:03:14.678Z,19.70
2019-04-04T05:04:14.807Z,19.20
2019-04-04T05:05:14.932Z,19.30
2019-04-04T05:06:15.062Z,20.10
2019-04-04T05:07:15.183Z,19.90
2019-04-04T05:08:15.317Z,21.00
2019-04-04T05:09:15.440Z,21.70
2019-04-04T05:10:15.616Z,21.30
2019-04-04T05:11:18.651Z,23.40
2019-04-04T05:12:15.854Z,24.70
2019-04-04T05:13:15.975Z,23.50
2019-04-04T05:14:16.104Z,22.40
2019-04-04T05:15:16.231Z,23.20
2019-04-04T05:16:16.369Z,23.60
2019-04-04T05:17:16.491Z,23.40
2019-04-04T05:18:17.088Z,22.60
2019-04-04T05:19:17.110Z,22.90
2019-04-04T05:20:16.881Z,24.80
2019-04-04T05:21:24.996Z,24.70
2019-04-04T05:22:17.145Z,23.50
2019-04-04T05:23:17.274Z,25.20
2019-04-04T05:24:18.134Z,25.50
2019-04-04T05:25:17.550Z,25.60
2019-04-04T05:26:17.673Z,26.00
2019-04-04T05:27:17.795Z,27.50
2019-04-04T05:28:17.923Z,27.60
2019-04-04T05:29:18.056Z,27.60
2019-04-04T05:30:20.277Z,27.40
2019-04-04T05:31:18.807Z,26.90
2019-04-04T05:32:21.042Z,28.70
2019-04-04T05:33:18.574Z,27.90
2019-04-04T05:34:18.719Z,27.70
2019-04-04T05:35:18.826Z,28.70
2019-04-04T05:36:18.961Z,28.80
2019-04-04T05:37:19.080Z,27.50
2019-04-04T05:38:19.222Z,26.20
2019-04-04T05:39:19.341Z,25.50
2019-04-04T05:40:19.465Z,25.30
2019-04-04T05:41:19.605Z,24.10
2019-04-04T05:42:19.750Z,22.90
2019-04-04T05:43:19.848Z,22.20
2019-04-04T05:44:19.978Z,23.10
2019-04-04T05:45:20.102Z,22.40
2019-04-04T05:46:20.248Z,22.80
2019-04-04T05:47:22.889Z,22.50
2019-04-04T05:48:20.485Z,22.30
2019-04-04T05:49:20.609Z,23.10
2019-04-04T05:50:20.749Z,23.60
2019-04-04T05:51:20.883Z,23.60
2019-04-04T05:52:21.006Z,23.60
2019-04-04T05:53:21.642Z,23.30
2019-04-04T05:54:21.279Z,23.20
2019-04-04T05:55:21.393Z,24.30
2019-04-04T05:56:24.132Z,23.60
2019-04-04T05:57:21.652Z,24.10
2019-04-04T05:58:22.601Z,23.90
2019-04-04T05:59:23.821Z,23.90
2019-04-04T06:00:22.029Z,25.70
2019-04-04T06:01:22.243Z,25.60
2019-04-04T06:02:22.307Z,26.00
2019-04-04T06:03:22.434Z,26.10
2019-04-04T06:04:22.591Z,26.00
2019-04-04T06:05:22.694Z,26.50
2019-04-04T06:06:22.816Z,26.30
2019-04-04T06:07:22.966Z,26.50
2019-04-04T06:08:23.064Z,31.20
2019-04-04T06:09:23.214Z,30.40
2019-04-04T06:10:23.338Z,29.70
2019-04-04T06:11:23.492Z,28.00
2019-04-04T06:12:25.195Z,27.60
2019-04-04T06:13:25.002Z,27.80
2019-04-04T06:14:23.869Z,26.70
2019-04-04T06:15:23.995Z,27.60
2019-04-04T06:16:24.124Z,26.80
2019-04-04T06:17:26.921Z,27.00
2019-04-04T06:18:24.403Z,26.70
2019-04-04T06:19:24.530Z,26.10
2019-04-04T06:20:24.661Z,26.30
2019-04-04T06:21:24.787Z,25.80
2019-04-04T06:22:24.915Z,24.70
2019-04-04T06:23:25.745Z,25.10
2019-04-04T06:24:27.281Z,24.40
2019-04-04T06:25:25.336Z,23.90
2019-04-04T06:26:25.466Z,23.10
2019-04-04T06:27:25.627Z,22.90
2019-04-04T06:28:25.754Z,34.50
2019-04-04T06:29:25.882Z,23.90
2019-04-04T06:30:25.997Z,22.70
2019-04-04T06:31:27.977Z,22.60
2019-04-04T06:32:26.302Z,22.40
2019-04-04T06:33:26.434Z,22.80
2019-04-04T06:34:26.569Z,22.00
2019-04-04T06:35:26.692Z,21.40
2019-04-04T06:36:26.819Z,20.90
2019-04-04T06:37:26.943Z,21.40
2019-04-04T06:38:27.105Z,21.00
2019-04-04T06:39:27.203Z,23.20
2019-04-04T06:40:28.157Z,27.00
2019-04-04T06:41:28.338Z,20.40
2019-04-04T06:42:27.579Z,20.00
2019-04-04T06:43:27.701Z,19.50
2019-04-04T06:44:27.833Z,27.90
2019-04-04T06:45:29.684Z,21.00
2019-04-04T06:46:28.140Z,22.00
2019-04-04T06:47:28.274Z,27.20
2019-04-04T06:48:29.342Z,24.10
2019-04-04T06:49:28.930Z,24.70
2019-04-04T06:50:28.689Z,21.10
2019-04-04T06:51:28.814Z,19.60
2019-04-04T06:52:28.938Z,18.30
2019-04-04T06:53:29.065Z,19.60
2019-04-04T06:54:29.192Z,19.50
2019-04-04T06:55:29.558Z,18.80
2019-04-04T06:56:31.834Z,17.90
2019-04-04T06:57:29.612Z,18.70
2019-04-04T06:58:29.730Z,18.40
2019-04-04T06:59:29.868Z,17.70
2019-04-04T07:00:30.039Z,19.30
2019-04-04T07:01:30.125Z,21.10
2019-04-04T07:02:30.277Z,16.90
2019-04-04T07:03:30.385Z,16.70
2019-04-04T07:04:31.867Z,15.30
2019-04-04T07:05:30.655Z,14.90
2019-04-04T07:06:30.789Z,14.40
2019-04-04T07:07:30.914Z,14.60
2019-04-04T07:08:31.038Z,14.50
2019-04-04T07:09:31.161Z,14.70
2019-04-04T07:10:31.294Z,14.50
2019-04-04T07:11:34.797Z,14.50
2019-04-04T07:12:31.554Z,14.80
2019-04-04T07:13:41.836Z,15.20
2019-04-04T07:14:45.158Z,15.70
2019-04-04T07:15:31.948Z,15.80
2019-04-04T07:16:32.075Z,15.00
2019-04-04T07:17:32.204Z,15.90
2019-04-04T07:18:32.388Z,16.10
2019-04-04T07:19:32.463Z,18.80
2019-04-04T07:20:32.590Z,17.50
2019-04-04T07:21:32.718Z,17.00
2019-04-04T07:22:32.843Z,15.70
2019-04-04T07:23:32.974Z,15.90
2019-04-04T07:24:33.105Z,15.70
2019-04-04T07:25:35.698Z,15.50
2019-04-04T07:26:33.359Z,14.30
2019-04-04T07:27:33.483Z,13.50
2019-04-04T07:28:33.627Z,13.50
2019-04-04T07:29:33.740Z,12.80
2019-04-04T07:30:33.867Z,12.60
2019-04-04T07:31:38.040Z,13.10
2019-04-04T07:32:34.118Z,12.80
2019-04-04T07:33:34.253Z,12.70
2019-04-04T07:34:34.380Z,12.60
2019-04-04T07:35:34.508Z,12.80
2019-04-04T07:36:34.634Z,12.70
2019-04-04T07:37:34.766Z,12.40
2019-04-04T07:38:35.149Z,13.50
2019-04-04T07:39:35.036Z,12.70
2019-04-04T07:40:37.035Z,13.10
2019-04-04T07:41:35.281Z,13.00
2019-04-04T07:42:35.410Z,12.20
2019-04-04T07:43:35.541Z,11.80
2019-04-04T07:44:35.670Z,11.30
2019-04-04T07:45:35.805Z,11.10
2019-04-04T07:46:35.928Z,11.60
2019-04-04T07:47:36.065Z,11.00
2019-04-04T07:48:36.192Z,11.10
2019-04-04T07:49:36.319Z,10.50
2019-04-04T07:50:36.455Z,11.10
2019-04-04T07:51:36.583Z,11.70
2019-04-04T07:52:36.708Z,12.30
2019-04-04T07:53:37.128Z,10.90
2019-04-04T07:54:38.534Z,11.10
2019-04-04T07:55:37.110Z,11.20
2019-04-04T07:56:37.237Z,11.20
2019-04-04T07:57:37.375Z,11.90
2019-04-04T07:58:37.497Z,11.40
2019-04-04T07:59:37.628Z,12.20
2019-04-04T08:00:37.763Z,12.00
2019-04-04T08:01:50.264Z,12.00
2019-04-04T08:02:38.011Z,11.60
2019-04-04T08:03:38.141Z,11.90
2019-04-04T08:04:38.274Z,12.30
2019-04-04T08:05:38.446Z,11.50
2019-04-04T08:06:38.534Z,12.10
2019-04-04T08:07:38.666Z,11.70
2019-04-04T08:08:38.795Z,12.00
2019-04-04T08:09:38.921Z,12.30
2019-04-04T08:10:39.049Z,12.10
2019-04-04T08:11:39.193Z,12.20
2019-04-04T08:12:39.312Z,11.30
2019-04-04T08:13:39.438Z,12.50
2019-04-04T08:14:39.568Z,12.30
2019-04-04T08:15:39.698Z,12.70
2019-04-04T08:16:39.829Z,13.00
2019-04-04T08:17:39.958Z,13.30
2019-04-04T08:18:40.087Z,13.40
2019-04-04T08:19:40.214Z,12.60
2019-04-04T08:20:40.332Z,12.20
2019-04-04T08:21:40.476Z,11.50
2019-04-04T08:22:40.603Z,12.60
2019-04-04T08:23:40.737Z,12.20
2019-04-04T08:24:40.860Z,13.00
2019-04-04T08:25:40.989Z,12.00
2019-04-04T08:26:41.108Z,12.20
2019-04-04T08:27:41.243Z,12.20
2019-04-04T08:28:41.370Z,13.20
2019-04-04T08:29:41.507Z,13.40
2019-04-04T08:30:41.637Z,12.50
2019-04-04T08:31:41.775Z,13.20
2019-04-04T08:32:41.890Z,13.40
2019-04-04T08:33:42.023Z,13.50
2019-04-04T08:34:42.146Z,14.20
2019-04-04T08:35:42.276Z,13.50
2019-04-04T08:36:42.402Z,13.50
2019-04-04T08:37:42.550Z,13.40
2019-04-04T08:38:42.659Z,13.30
2019-04-04T08:39:42.788Z,13.40
2019-04-04T08:40:42.916Z,14.10
2019-04-04T08:41:43.047Z,14.10
2019-04-04T08:42:43.184Z,14.80
2019-04-04T08:43:43.315Z,14.20
2019-04-04T08:44:43.444Z,14.20
2019-04-04T08:45:43.575Z,14.70
2019-04-04T08:46:43.716Z,13.80
2019-04-04T08:47:43.862Z,12.30
2019-04-04T08:48:43.982Z,13.10
2019-04-04T08:49:44.099Z,12.70
2019-04-04T08:50:44.230Z,12.70
2019-04-04T08:51:44.367Z,13.20
2019-04-04T08:52:44.490Z,13.30
2019-04-04T08:53:44.615Z,13.90
2019-04-04T08:54:44.747Z,13.40
2019-04-04T08:55:44.872Z,13.20
2019-04-04T08:56:45.014Z,13.90
2019-04-04T08:57:45.139Z,13.60
2019-04-04T08:58:45.270Z,13.80
2019-04-04T08:59:45.406Z,14.10
2019-04-04T09:00:45.526Z,13.90
2019-04-04T09:01:45.648Z,14.80
2019-04-04T09:02:45.779Z,14.40
2019-04-04T09:03:45.913Z,14.00
2019-04-04T09:04:46.039Z,12.90
2019-04-04T09:05:46.169Z,14.20
2019-04-04T09:06:46.302Z,14.10
2019-04-04T09:07:46.430Z,13.90
2019-04-04T09:08:46.561Z,14.20
2019-04-04T09:09:46.736Z,13.60
2019-04-04T09:10:46.817Z,14.10
2019-04-04T09:11:46.951Z,14.10
2019-04-04T09:12:47.086Z,14.60
2019-04-04T09:13:47.223Z,14.90
2019-04-04T09:14:47.346Z,14.50
2019-04-04T09:15:47.473Z,14.80
2019-04-04T09:16:47.601Z,14.40
2019-04-04T09:17:47.733Z,14.50
2019-04-04T09:18:47.860Z,15.10
2019-04-04T09:19:47.994Z,14.30
2019-04-04T09:20:48.116Z,15.30
2019-04-04T09:21:48.242Z,15.10
2019-04-04T09:22:48.377Z,15.20
2019-04-04T09:23:48.522Z,14.10
2019-04-04T09:24:48.652Z,14.10
2019-04-04T09:25:48.782Z,14.40
2019-04-04T09:26:48.907Z,15.30
2019-04-04T09:27:49.036Z,15.50
2019-04-04T09:28:49.168Z,15.60
2019-04-04T09:29:49.302Z,15.70
2019-04-04T09:30:49.427Z,16.20
2019-04-04T09:31:49.561Z,16.50
2019-04-04T09:32:49.693Z,15.80
2019-04-04T09:33:49.815Z,16.10
2019-04-04T09:34:49.948Z,15.80
2019-04-04T09:35:50.075Z,15.90
2019-04-04T09:36:50.216Z,15.70
2019-04-04T09:37:50.341Z,16.80
2019-04-04T09:38:50.469Z,17.70
2019-04-04T09:39:50.601Z,17.80
2019-04-04T09:40:50.732Z,18.10
2019-04-04T09:41:50.860Z,18.00
2019-04-04T09:42:51.004Z,18.20
2019-04-04T09:43:51.126Z,17.50
2019-04-04T09:44:51.249Z,17.60
2019-04-04T09:45:51.377Z,17.60
2019-04-04T09:47:04.617Z,18.20
2019-04-04T09:47:51.635Z,18.00
2019-04-04T09:48:51.766Z,20.00
2019-04-04T09:49:51.897Z,20.00
2019-04-04T09:50:52.024Z,20.60
2019-04-04T09:51:52.162Z,20.40
2019-04-04T09:52:52.286Z,19.70
2019-04-04T09:53:53.632Z,19.80
2019-04-04T09:54:52.541Z,21.50
2019-04-04T09:55:52.678Z,22.10
2019-04-04T09:56:52.811Z,21.60
2019-04-04T09:57:52.929Z,21.20
2019-04-04T09:58:54.866Z,21.90
2019-04-04T09:59:53.201Z,22.10
2019-04-04T10:00:53.319Z,22.50
2019-04-04T10:01:53.445Z,23.10
2019-04-04T10:02:53.587Z,22.60
2019-04-04T10:03:53.726Z,23.20
2019-04-04T10:04:53.837Z,22.80
2019-04-04T10:05:53.966Z,22.70
2019-04-04T10:06:54.098Z,23.60
2019-04-04T10:07:54.238Z,23.00
2019-04-04T10:08:54.359Z,22.70
2019-04-04T10:09:54.483Z,23.60
2019-04-04T10:10:54.603Z,24.20
2019-04-04T10:11:54.747Z,24.40
2019-04-04T10:12:54.873Z,24.10
2019-04-04T10:13:54.997Z,23.70
2019-04-04T10:14:55.126Z,24.20
2019-04-04T10:15:55.275Z,23.90
2019-04-04T10:16:55.391Z,24.30
2019-04-04T10:17:55.535Z,24.40
2019-04-04T10:18:55.654Z,22.70
2019-04-04T10:19:55.798Z,25.90
2019-04-04T10:20:55.914Z,24.90
2019-04-04T10:21:56.041Z,24.20
2019-04-04T10:22:56.183Z,25.00
2019-04-04T10:23:56.291Z,24.80
2019-04-04T10:24:56.416Z,25.50
2019-04-04T10:25:56.549Z,25.60
2019-04-04T10:26:56.672Z,26.60
2019-04-04T10:27:56.788Z,25.00
2019-04-04T10:28:56.922Z,25.60
2019-04-04T10:29:57.048Z,24.80
2019-04-04T10:30:57.185Z,24.90
2019-04-04T10:31:57.321Z,26.10
2019-04-04T10:32:57.447Z,26.20
2019-04-04T10:33:57.576Z,26.10
2019-04-04T10:34:57.707Z,25.90
2019-04-04T10:35:57.836Z,25.90
2019-04-04T10:36:57.966Z,25.10
2019-04-04T10:37:58.093Z,25.80
2019-04-04T10:38:58.235Z,26.20
2019-04-04T10:39:58.364Z,25.60
2019-04-04T10:40:58.494Z,26.70
2019-04-04T10:41:58.610Z,26.40
2019-04-04T10:42:58.745Z,26.50
2019-04-04T10:43:58.879Z,26.30
2019-04-04T10:44:59.004Z,26.90
2019-04-04T10:45:59.123Z,25.90
2019-04-04T10:46:59.258Z,25.80
2019-04-04T10:47:59.379Z,25.50
2019-04-04T10:48:59.510Z,26.50
2019-04-04T10:49:59.642Z,25.70
2019-04-04T10:50:59.778Z,25.40
2019-04-04T10:51:59.902Z,25.10
2019-04-04T10:53:00.039Z,26.00
2019-04-04T10:54:00.166Z,25.70
2019-04-04T10:55:01.625Z,25.80
2019-04-04T10:56:00.434Z,26.80
2019-04-04T10:57:00.553Z,25.90
2019-04-04T10:58:00.684Z,26.60
2019-04-04T10:59:00.814Z,26.70
2019-04-04T11:00:03.206Z,26.50
2019-04-04T11:01:01.065Z,27.20
2019-04-04T11:02:01.202Z,26.80
2019-04-04T11:03:01.325Z,26.60
2019-04-04T11:04:01.460Z,27.70
2019-04-04T11:05:01.586Z,26.70
2019-04-04T11:06:01.729Z,26.90
2019-04-04T11:07:01.849Z,25.90
2019-04-04T11:08:01.973Z,26.20
2019-04-04T11:09:02.113Z,25.80
2019-04-04T11:10:02.248Z,25.00
2019-04-04T11:11:02.376Z,25.00
2019-04-04T11:12:02.503Z,26.00
2019-04-04T11:13:03.093Z,25.40
2019-04-04T11:14:02.772Z,25.60
2019-04-04T11:15:02.904Z,25.10
2019-04-04T11:16:03.036Z,24.30
2019-04-04T11:17:03.174Z,25.00
2019-04-04T11:18:03.303Z,24.60
2019-04-04T11:19:03.418Z,24.30
2019-04-04T11:20:03.561Z,24.50
2019-04-04T11:21:03.694Z,25.50
2019-04-04T11:22:03.881Z,25.70
2019-04-04T11:23:03.954Z,25.80
2019-04-04T11:24:04.100Z,24.70
2019-04-04T11:25:04.294Z,23.80
2019-04-04T11:26:04.359Z,24.40
2019-04-04T11:27:04.580Z,23.80
2019-04-04T11:28:04.607Z,23.70
2019-04-04T11:29:04.816Z,23.60
2019-04-04T11:30:04.865Z,23.80
2019-04-04T11:31:04.992Z,22.80
2019-04-04T11:32:05.129Z,22.40
2019-04-04T11:33:05.257Z,23.60
2019-04-04T11:34:05.387Z,23.50
2019-04-04T11:35:05.512Z,23.80
2019-04-04T11:36:05.643Z,24.30
2019-04-04T11:37:05.776Z,22.80
2019-04-04T11:38:05.912Z,23.60
2019-04-04T11:39:06.036Z,23.50
2019-04-04T11:40:06.157Z,24.10
2019-04-04T11:41:06.294Z,23.70
2019-04-04T11:42:06.425Z,22.90
2019-04-04T11:43:06.569Z,23.20
2019-04-04T11:44:06.720Z,23.50
2019-04-04T11:45:06.830Z,23.00
2019-04-04T11:46:06.951Z,22.90
2019-04-04T11:47:07.085Z,23.60
2019-04-04T11:48:07.226Z,22.50
2019-04-04T11:49:07.364Z,24.00
2019-04-04T11:50:07.497Z,23.20
2019-04-04T11:51:07.666Z,23.20
2019-04-04T11:52:07.786Z,22.60
2019-04-04T11:53:07.921Z,22.80
2019-04-04T11:54:08.077Z,23.40
2019-04-04T11:55:08.190Z,22.80
2019-04-04T11:56:08.344Z,22.90
2019-04-04T11:57:08.526Z,22.70
2019-04-04T11:58:08.599Z,23.00
2019-04-04T11:59:08.732Z,23.20
2019-04-04T12:00:08.856Z,23.60
2019-04-04T12:01:08.998Z,23.20
2019-04-04T12:02:09.132Z,23.60
2019-04-04T12:03:09.248Z,23.40
2019-04-04T12:04:09.373Z,24.50
2019-04-04T12:05:09.498Z,23.90
2019-04-04T12:06:09.677Z,24.10
2019-04-04T12:07:09.805Z,23.10
2019-04-04T12:08:09.938Z,23.30
2019-04-04T12:09:10.070Z,23.80
2019-04-04T12:10:10.213Z,23.40
2019-04-04T12:11:10.329Z,22.20
2019-04-04T12:12:10.466Z,23.40
2019-04-04T12:13:10.599Z,23.30
2019-04-04T12:14:10.777Z,22.60
2019-04-04T12:15:10.858Z,23.50
2019-04-04T12:16:10.990Z,22.70
2019-04-04T12:17:11.121Z,22.70
2019-04-04T12:18:11.292Z,22.80
2019-04-04T12:19:11.413Z,23.20
2019-04-04T12:20:11.545Z,23.40
2019-04-04T12:21:11.666Z,24.20
2019-04-04T12:22:12.110Z,24.60
2019-04-04T12:23:12.067Z,23.70
2019-04-04T12:24:12.065Z,22.70
2019-04-04T12:25:12.200Z,24.10
2019-04-04T12:26:12.356Z,23.80
2019-04-04T12:27:12.513Z,25.10
2019-04-04T12:28:12.630Z,24.40
2019-04-04T12:29:12.768Z,38.50
2019-04-04T12:30:12.933Z,36.80
2019-04-04T12:31:13.061Z,25.40
2019-04-04T12:32:13.204Z,28.00
2019-04-04T12:33:13.347Z,26.70
2019-04-04T12:34:13.481Z,26.60
2019-04-04T12:35:13.613Z,26.70
2019-04-04T12:36:24.006Z,25.40
2019-04-04T12:37:13.940Z,28.90
2019-04-04T12:38:14.033Z,25.60
2019-04-04T12:39:14.161Z,28.10
2019-04-04T12:40:20.479Z,26.90
2019-04-04T12:41:14.480Z,25.80
2019-04-04T12:42:14.559Z,25.80
2019-04-04T12:43:14.690Z,26.00
2019-04-04T12:44:14.829Z,26.30
2019-04-04T12:45:14.965Z,25.40
2019-04-04T12:46:15.076Z,27.20
2019-04-04T12:47:15.207Z,27.90
2019-04-04T12:48:15.346Z,27.80
2019-04-04T12:49:15.472Z,25.40
2019-04-04T12:50:15.594Z,26.20
2019-04-04T12:51:15.718Z,25.60
2019-04-04T12:52:15.842Z,26.20
2019-04-04T12:53:15.995Z,29.60
2019-04-04T12:54:16.122Z,27.50
2019-04-04T12:55:16.253Z,28.00
2019-04-04T12:56:16.387Z,26.60